Time;durP1;ratioP1;P1;durP2;ratioP2;P2;SDS_P1;SDS_P2;PMS_P1;PMS_P2;Temp;Humidity;BMP_temperature;BMP_pressure;BME280_temperature;BME280_humidity;BME280_pressure;Samples;Min_cycle;Max_cycle;Signal;HPM_P1;HPM_P2
2022/12/30 07:05:56;;;;;;;15.77;4.63;;;;;;;5.02;100.00;100686.81;5365897;27;20353;-76
2022/12/30 07:08:28;;;;;;;11.73;4.20;;;;;;;5.05;100.00;100680.81;5363554;27;20019;-76
2022/12/30 07:10:59;;;;;;;10.55;3.80;;;;;;;5.06;100.00;100676.13;5364890;27;20064;-77
2022/12/30 07:13:30;;;;;;;9.27;3.92;;;;;;;5.08;100.00;100680.28;5365480;27;20027;-76
2022/12/30 07:16:02;;;;;;;13.30;4.30;;;;;;;5.08;100.00;100672.03;5364632;27;20031;-78
2022/12/30 07:18:33;;;;;;;11.63;3.78;;;;;;;5.10;100.00;100664.38;5365103;27;20404;-77
2022/12/30 07:21:07;;;;;;;18.35;5.25;;;;;;;5.12;100.00;100664.94;5365183;27;20023;-77
2022/12/30 07:23:38;;;;;;;11.60;4.40;;;;;;;5.12;100.00;100672.38;5351598;27;20043;-77
2022/12/30 07:26:09;;;;;;;13.65;3.78;;;;;;;5.14;100.00;100667.41;5350179;27;20024;-78
2022/12/30 07:28:40;;;;;;;9.68;3.85;;;;;;;5.16;100.00;100665.25;5362156;27;20075;-77
2022/12/30 07:31:12;;;;;;;7.43;3.33;;;;;;;5.23;100.00;100660.38;5359732;27;20026;-78
2022/12/30 07:33:43;;;;;;;9.77;4.70;;;;;;;5.23;100.00;100652.13;5343560;27;20374;-76
2022/12/30 07:36:14;;;;;;;6.22;3.38;;;;;;;5.26;100.00;100642.53;5342547;27;20019;-78
2022/12/30 07:38:45;;;;;;;10.38;4.25;;;;;;;5.32;100.00;100641.53;5342954;27;20049;-75
2022/12/30 07:41:17;;;;;;;7.07;3.67;;;;;;;5.34;100.00;100639.31;5347355;27;20579;-76
2022/12/30 07:43:48;;;;;;;6.90;3.85;;;;;;;5.36;100.00;100637.97;5364430;27;20542;-77
2022/12/30 07:46:20;;;;;;;12.95;4.35;;;;;;;5.39;100.00;100626.47;5364485;27;20058;-77
2022/12/30 07:48:51;;;;;;;8.52;3.17;;;;;;;5.42;100.00;100616.88;5364213;27;20030;-77
2022/12/30 07:51:22;;;;;;;11.82;3.50;;;;;;;5.40;100.00;100619.88;5364470;27;20027;-78
2022/12/30 07:53:54;;;;;;;8.60;3.00;;;;;;;5.46;100.00;100606.97;5364225;27;20027;-77
2022/12/30 07:56:25;;;;;;;8.57;3.30;;;;;;;5.49;100.00;100605.63;5364163;27;20580;-78
2022/12/30 07:58:59;;;;;;;6.40;3.10;;;;;;;5.53;100.00;100599.34;5363952;27;20019;-78
2022/12/30 08:01:30;;;;;;;7.47;3.15;;;;;;;5.58;100.00;100591.13;5359285;27;20061;-77
2022/12/30 08:04:01;;;;;;;9.70;3.63;;;;;;;5.62;100.00;100595.03;5351662;27;20408;-75
2022/12/30 08:06:34;;;;;;;9.48;2.90;;;;;;;5.61;100.00;100582.34;5364035;27;20447;-76
2022/12/30 08:09:06;;;;;;;6.47;2.85;;;;;;;5.66;100.00;100576.88;5363807;27;20035;-76
2022/12/30 08:11:37;;;;;;;7.65;2.88;;;;;;;5.71;100.00;100573.34;5363304;27;20031;-76
2022/12/30 08:14:08;;;;;;;10.75;4.05;;;;;;;5.72;100.00;100582.44;5364305;27;20058;-76
2022/12/30 08:16:40;;;;;;;8.10;3.05;;;;;;;5.79;100.00;100581.09;5353668;27;20031;-77
2022/12/30 08:19:11;;;;;;;14.05;4.13;;;;;;;5.83;100.00;100570.41;5350357;27;20504;-75
2022/12/30 08:21:42;;;;;;;9.85;2.90;;;;;;;5.90;100.00;100568.25;5349317;27;20026;-75
2022/12/30 08:24:14;;;;;;;9.82;3.30;;;;;;;5.95;100.00;100567.47;5348485;27;20031;-77
2022/12/30 08:26:45;;;;;;;7.07;2.92;;;;;;;6.00;100.00;100565.59;5350989;27;20034;-84
2022/12/30 08:29:17;;;;;;;8.02;3.05;;;;;;;6.02;100.00;100570.84;5349963;27;20023;-77
2022/12/30 08:31:49;;;;;;;9.40;3.45;;;;;;;6.05;100.00;100568.38;5349058;27;20465;-83
2022/12/30 08:34:21;;;;;;;9.45;3.00;;;;;;;6.10;100.00;100565.66;5351165;27;20023;-81
2022/12/30 08:36:52;;;;;;;13.90;8.48;;;;;;;6.55;100.00;100551.56;5349593;27;20034;-73
2022/12/30 08:39:24;;;;;;;4.13;3.05;;;;;;;6.47;100.00;100556.47;5348928;27;20027;-73
2022/12/30 08:41:55;;;;;;;7.55;3.38;;;;;;;6.47;100.00;100550.97;5349201;27;20072;-68
2022/12/30 08:44:26;;;;;;;7.35;3.17;;;;;;;6.42;100.00;100539.94;5348923;27;20087;-69
2022/12/30 08:46:58;;;;;;;8.52;3.25;;;;;;;6.37;100.00;100531.66;5347407;27;20023;-68
2022/12/30 08:49:29;;;;;;;9.85;3.22;;;;;;;6.40;100.00;100525.59;5347857;27;20359;-69
2022/12/30 08:52:01;;;;;;;8.30;3.22;;;;;;;6.38;100.00;100521.44;5348465;27;20027;-68
2022/12/30 08:54:33;;;;;;;12.93;3.85;;;;;;;6.36;100.00;100518.94;5348583;27;20100;-69
2022/12/30 08:57:09;;;;;;;6.32;3.78;;;;;;;6.40;100.00;100520.06;5348792;27;20023;-69
2022/12/30 08:59:40;;;;;;;7.80;3.00;;;;;;;6.45;100.00;100511.84;5348195;27;20038;-68
2022/12/30 09:02:12;;;;;;;10.68;2.95;;;;;;;6.46;100.00;100507.97;5348650;27;20381;-68
2022/12/30 09:04:43;;;;;;;6.18;3.28;;;;;;;6.52;100.00;100508.84;5348401;27;20054;-68
2022/12/30 09:07:15;;;;;;;6.93;2.50;;;;;;;6.49;100.00;100501.09;5347591;27;20015;-68
2022/12/30 09:09:46;;;;;;;9.93;3.58;;;;;;;6.53;100.00;100497.53;5348230;27;20518;-68
2022/12/30 09:12:17;;;;;;;6.88;2.80;;;;;;;6.55;100.00;100497.25;5348350;27;20086;-68
2022/12/30 09:14:49;;;;;;;5.35;2.63;;;;;;;6.58;100.00;100487.63;5346779;27;20023;-68
2022/12/30 09:17:20;;;;;;;6.07;2.42;;;;;;;6.60;100.00;100485.44;5347745;27;20041;-68
2022/12/30 09:19:51;;;;;;;4.72;2.50;;;;;;;6.63;100.00;100476.63;5348106;27;20082;-69
2022/12/30 09:22:23;;;;;;;6.65;2.53;;;;;;;6.65;100.00;100482.69;5347277;27;20355;-68
2022/12/30 09:24:55;;;;;;;5.70;2.38;;;;;;;6.70;100.00;100482.69;5348118;27;20027;-68
2022/12/30 09:27:26;;;;;;;10.38;3.15;;;;;;;6.78;100.00;100476.66;5346967;27;20083;-68
2022/12/30 09:29:57;;;;;;;6.07;3.50;;;;;;;6.80;100.00;100474.44;5348353;27;20023;-68
2022/12/30 09:32:29;;;;;;;6.13;2.47;;;;;;;6.85;100.00;100471.69;5347943;27;20106;-69
2022/12/30 09:35:00;;;;;;;6.80;2.00;;;;;;;6.87;100.00;100472.22;5347669;27;20027;-70
2022/12/30 09:37:33;;;;;;;5.20;2.15;;;;;;;6.94;100.00;100467.28;5348422;27;20110;-69
2022/12/30 09:40:05;;;;;;;4.82;2.00;;;;;;;7.01;100.00;100461.50;5346810;27;20585;-68
2022/12/30 09:45:41;;;;;;;19.15;17.02;;;;;;;7.13;100.00;100458.44;5347455;27;20409;-71
2022/12/30 09:48:22;;;;;;;8.25;2.60;;;;;;;7.13;100.00;100444.66;5347571;27;20023;-70
2022/12/30 09:51:05;;;;;;;5.28;2.28;;;;;;;7.15;100.00;100445.22;5347630;27;20061;-70
2022/12/30 09:53:56;;;;;;;6.35;3.42;;;;;;;7.19;100.00;100432.53;5347267;27;20472;-71
2022/12/30 09:56:36;;;;;;;4.85;2.03;;;;;;;7.23;100.00;100428.09;5347057;27;20019;-70
2022/12/30 09:59:24;;;;;;;7.60;2.72;;;;;;;7.24;100.00;100423.44;5346956;27;20023;-70
2022/12/30 10:02:22;;;;;;;4.30;2.45;;;;;;;7.28;100.00;100416.25;5347101;27;20373;-69
2022/12/30 10:04:59;;;;;;;5.55;2.25;;;;;;;7.30;100.00;100417.63;5346237;27;20091;-71
2022/12/30 10:07:38;;;;;;;4.85;1.67;;;;;;;7.33;100.00;100410.72;5346813;27;20372;-70
2022/12/30 10:10:09;;;;;;;4.07;1.90;;;;;;;7.33;100.00;100405.22;5345655;27;20031;-70
2022/12/30 10:12:49;;;;;;;7.30;2.20;;;;;;;7.39;100.00;100399.41;5345447;27;20019;-70
2022/12/30 10:15:32;;;;;;;5.90;2.80;;;;;;;7.46;100.00;100398.28;5346677;27;20054;-71
2022/12/30 10:18:21;;;;;;;5.53;2.25;;;;;;;7.51;100.00;100374.25;5346797;27;20491;-73
2022/12/30 10:21:03;;;;;;;8.07;2.30;;;;;;;7.49;100.00;100376.50;5346788;27;20039;-69
2022/12/30 10:23:57;;;;;;;5.63;1.90;;;;;;;7.54;100.00;100351.63;5325298;28;20024;-69
2022/12/30 10:26:39;;;;;;;5.68;3.33;;;;;;;7.57;100.00;100340.03;5325738;28;20069;-72
2022/12/30 10:29:43;;;;;;;4.03;1.70;;;;;;;7.63;100.00;100338.06;5325932;28;20027;-71
2022/12/30 10:32:24;;;;;;;5.88;2.35;;;;;;;7.60;100.00;100330.38;5281396;27;20050;-70
2022/12/30 10:35:13;;;;;;;5.63;2.20;;;;;;;7.63;100.00;100332.56;5346545;27;20052;-70
2022/12/30 10:37:44;;;;;;;5.90;2.22;;;;;;;7.63;100.00;100313.22;5346007;27;20027;-70
2022/12/30 10:40:16;;;;;;;8.13;2.70;;;;;;;7.68;100.00;100317.91;5346370;27;20023;-70
2022/12/30 10:43:05;;;;;;;14.02;5.93;;;;;;;7.73;99.89;100299.38;5346597;27;20023;-71
2022/12/30 10:46:04;;;;;;;9.30;3.17;;;;;;;7.69;99.79;100294.72;5346631;27;20511;-72
2022/12/30 10:49:05;;;;;;;6.72;3.15;;;;;;;7.75;100.00;100282.56;5346109;27;20095;-73
2022/12/30 10:51:36;;;;;;;25.75;20.35;;;;;;;7.80;99.58;100261.25;5346811;27;20023;-70
2022/12/30 10:54:09;;;;;;;8.23;5.13;;;;;;;7.83;99.46;100268.97;5345314;27;20022;-71
2022/12/30 10:56:42;;;;;;;8.52;3.83;;;;;;;7.82;99.28;100247.16;5346132;27;20114;-70
2022/12/30 10:59:21;;;;;;;8.80;3.67;;;;;;;7.89;99.54;100246.84;5345922;27;20011;-69
2022/12/30 11:02:00;;;;;;;7.72;3.88;;;;;;;7.91;98.80;100239.09;5346644;27;20035;-70
2022/12/30 11:04:40;;;;;;;8.35;4.03;;;;;;;7.89;99.41;100230.28;5345825;28;20043;-70
2022/12/30 11:07:13;;;;;;;7.25;3.35;;;;;;;7.91;99.35;100220.59;5345427;28;20076;-68
2022/12/30 11:09:46;;;;;;;7.05;2.75;;;;;;;7.94;99.37;100221.97;5343830;28;20025;-71
2022/12/30 11:15:15;;;;;;;;;;;;;;;8.00;99.22;100196.78;5346545;28;20373;-71
2022/12/30 11:17:50;;;;;;;6.80;3.17;;;;;;;7.94;98.74;100194.34;5345775;28;19923;-72
2022/12/30 11:20:27;;;;;;;6.47;2.35;;;;;;;8.00;98.82;100190.41;5345639;28;20113;-70
2022/12/30 11:23:02;;;;;;;7.10;2.63;;;;;;;8.06;99.30;100181.00;5345431;28;20081;-70
2022/12/30 11:25:36;;;;;;;6.80;2.80;;;;;;;8.06;98.58;100176.28;5345840;28;20030;-71
2022/12/30 11:28:17;;;;;;;6.40;2.58;;;;;;;8.09;98.37;100161.09;5341383;28;20023;-70
2022/12/30 11:30:51;;;;;;;4.82;2.53;;;;;;;8.09;97.75;100146.44;5324362;28;20020;-70
2022/12/30 11:33:44;;;;;;;6.97;2.85;;;;;;;8.15;98.69;100126.75;5342582;28;20034;-71
2022/12/30 11:36:30;;;;;;;10.68;4.38;;;;;;;8.15;97.89;100117.66;5345557;28;20039;-71
2022/12/30 11:39:25;;;;;;;7.65;3.22;;;;;;;8.20;97.54;100104.63;5345408;28;20027;-70
2022/12/30 11:41:59;;;;;;;4.88;2.45;;;;;;;8.19;96.68;100099.41;5344104;28;20039;-71
2022/12/30 11:44:32;;;;;;;8.20;2.10;;;;;;;8.17;97.19;100091.41;5344969;28;20062;-70
2022/12/30 11:47:06;;;;;;;9.73;4.05;;;;;;;8.25;97.42;100089.94;5343424;28;20027;-70
2022/12/30 11:49:53;;;;;;;8.98;2.70;;;;;;;8.23;97.23;100076.44;5342535;28;20024;-70
2022/12/30 11:52:26;;;;;;;6.03;2.47;;;;;;;8.25;96.59;100079.69;5336085;27;20027;-71
2022/12/30 11:55:02;;;;;;;8.05;2.35;;;;;;;8.27;96.34;100044.31;5327730;28;20020;-69
2022/12/30 11:57:37;;;;;;;6.32;3.15;;;;;;;8.33;97.48;100038.75;5348559;27;20106;-70
2022/12/30 12:00:12;;;;;;;7.47;3.03;;;;;;;8.36;97.43;100021.56;5349499;27;20106;-70
2022/12/30 12:02:50;;;;;;;9.00;2.60;;;;;;;8.33;96.29;100019.41;5346011;27;20039;-70
2022/12/30 12:05:24;;;;;;;6.43;2.53;;;;;;;8.36;96.28;100021.56;5348633;27;20047;-70
2022/12/30 12:08:12;;;;;;;7.47;2.55;;;;;;;8.43;96.73;100014.59;5339958;27;20347;-72
2022/12/30 12:11:15;;;;;;;9.20;2.65;;;;;;;8.47;95.31;100009.31;5328664;27;20386;-71
2022/12/30 12:14:15;;;;;;;8.40;3.75;;;;;;;8.49;96.07;100005.16;5331188;27;20131;-71
2022/12/30 12:16:58;;;;;;;6.40;2.40;;;;;;;8.49;96.24;99994.09;5348742;27;20389;-70
2022/12/30 12:19:44;;;;;;;8.70;2.78;;;;;;;8.48;96.82;99994.38;5348649;27;20083;-71
2022/12/30 12:22:50;;;;;;;8.38;2.35;;;;;;;8.53;96.99;99985.19;5348753;27;20023;-72
2022/12/30 12:25:25;;;;;;;5.97;2.63;;;;;;;8.55;97.84;99980.19;5347388;27;20027;-72
2022/12/30 12:27:56;;;;;;;8.80;2.83;;;;;;;8.60;98.72;99969.88;5348744;27;20026;-72
2022/12/30 12:31:03;;;;;;;6.70;2.20;;;;;;;8.55;98.79;99961.66;5343174;27;20356;-70
2022/12/30 12:33:47;;;;;;;4.82;2.30;;;;;;;8.52;99.83;99947.63;5348714;27;20049;-70
2022/12/30 12:36:33;;;;;;;6.28;2.22;;;;;;;8.47;100.00;99943.00;5348786;27;20015;-70
2022/12/30 12:39:11;;;;;;;9.90;5.50;;;;;;;8.47;100.00;99935.53;5326430;28;20031;-70
2022/12/30 12:41:59;;;;;;;11.55;6.35;;;;;;;8.47;100.00;99916.19;5327120;28;20101;-74
2022/12/30 12:44:49;;;;;;;5.70;2.10;;;;;;;8.51;100.00;99913.63;5326461;28;20129;-71
2022/12/30 12:47:40;;;;;;;7.40;3.05;;;;;;;8.47;100.00;99907.91;5328013;27;20020;-71
2022/12/30 12:50:25;;;;;;;9.15;2.90;;;;;;;8.45;100.00;99887.22;5327235;28;20034;-70
2022/12/30 12:53:03;;;;;;;7.53;3.03;;;;;;;8.48;100.00;99876.38;5326418;28;20092;-72
2022/12/30 12:56:08;;;;;;;7.65;2.03;;;;;;;8.53;100.00;99869.13;5334878;27;20026;-71
2022/12/30 12:59:16;;;;;;;5.35;1.88;;;;;;;8.55;100.00;99848.38;5347981;27;20031;-72
2022/12/30 13:02:10;;;;;;;6.05;2.40;;;;;;;8.51;100.00;99825.19;5347499;27;20031;-72
2022/12/30 13:05:08;;;;;;;5.18;2.67;;;;;;;8.48;100.00;99812.81;5336336;27;20043;-72
2022/12/30 13:07:58;;;;;;;34.33;24.88;;;;;;;8.51;100.00;99799.53;5342014;27;20039;-72
2022/12/30 13:11:31;;;;;;;4.55;3.33;;;;;;;8.54;100.00;99777.66;5348026;27;20015;-73
2022/12/30 13:14:40;;;;;;;5.00;2.63;;;;;;;8.57;100.00;99756.88;5240111;27;20037;-71
2022/12/30 13:17:26;;;;;;;4.60;2.60;;;;;;;8.58;100.00;99761.25;5348122;27;20019;-73
2022/12/30 13:20:04;;;;;;;3.95;2.10;;;;;;;8.61;100.00;99738.53;5347042;27;20023;-74
2022/12/30 13:22:38;;;;;;;4.47;2.55;;;;;;;8.58;100.00;99720.63;5347116;27;20031;-71
2022/12/30 13:25:24;;;;;;;6.53;2.33;;;;;;;8.61;100.00;99721.97;5347944;27;20069;-71
2022/12/30 13:27:57;;;;;;;4.38;2.45;;;;;;;8.63;100.00;99708.66;5347033;27;20427;-71
2022/12/30 13:30:53;;;;;;;4.43;2.22;;;;;;;8.59;100.00;99697.41;5347332;27;20015;-71
2022/12/30 13:33:48;;;;;;;4.70;1.60;;;;;;;8.63;100.00;99684.59;5347667;27;20369;-71
2022/12/30 13:36:57;;;;;;;4.28;1.77;;;;;;;8.64;100.00;99685.41;5347450;27;20023;-71
2022/12/30 13:39:41;;;;;;;5.03;2.60;;;;;;;8.61;100.00;99692.38;5347779;27;20062;-71
2022/12/30 13:42:29;;;;;;;4.30;1.80;;;;;;;8.59;100.00;99686.34;5347066;27;20117;-71
2022/12/30 13:45:01;;;;;;;2.55;1.42;;;;;;;8.54;100.00;99667.09;5346982;27;20027;-71
2022/12/30 13:47:34;;;;;;;3.35;1.83;;;;;;;8.51;100.00;99678.75;5347502;27;20034;-71
2022/12/30 13:50:25;;;;;;;5.28;1.85;;;;;;;8.53;100.00;99646.09;5347210;27;20117;-72
2022/12/30 13:52:59;;;;;;;4.75;1.75;;;;;;;8.48;100.00;99652.53;5347831;27;20414;-71
2022/12/30 13:55:33;;;;;;;3.80;1.60;;;;;;;8.41;100.00;99640.25;5346657;27;20415;-71
2022/12/30 13:58:24;;;;;;;3.15;1.95;;;;;;;8.42;100.00;99653.78;5346418;27;20032;-71
2022/12/30 14:01:40;;;;;;;4.18;2.00;;;;;;;8.39;100.00;99637.81;5346134;27;20054;-72
2022/12/30 14:04:14;;;;;;;3.88;3.08;;;;;;;8.44;100.00;99634.13;5342009;27;20035;-69
2022/12/30 14:06:50;;;;;;;4.20;1.83;;;;;;;8.43;100.00;99644.34;5346752;27;20113;-72
2022/12/30 14:09:42;;;;;;;3.28;2.10;;;;;;;8.40;100.00;99652.44;5325697;28;20023;-72
2022/12/30 14:12:31;;;;;;;4.07;2.17;;;;;;;8.42;100.00;99625.34;5335788;27;20027;-73
2022/12/30 14:15:37;;;;;;;4.07;2.47;;;;;;;8.41;100.00;99634.72;5332015;27;20204;-73
2022/12/30 14:18:20;;;;;;;4.10;1.85;;;;;;;8.34;100.00;99629.59;5343544;27;20088;-73
2022/12/30 14:20:57;;;;;;;4.53;3.15;;;;;;;8.41;100.00;99612.63;5346081;27;20462;-80
2022/12/30 14:23:41;;;;;;;8.93;6.18;;;;;;;8.43;100.00;99613.16;5346731;27;20023;-75
2022/12/30 14:26:18;;;;;;;3.55;2.00;;;;;;;8.47;100.00;99605.91;5345874;27;20027;-73
2022/12/30 14:28:52;;;;;;;3.35;2.92;;;;;;;8.45;100.00;99614.47;5346424;27;20030;-72
2022/12/30 14:31:28;;;;;;;2.47;1.98;;;;;;;8.49;100.00;99598.13;5325000;27;20074;-71
2022/12/30 14:34:03;;;;;;;2.25;1.42;;;;;;;8.54;100.00;99617.38;5324989;28;20391;-71
2022/12/30 14:36:37;;;;;;;2.90;1.88;;;;;;;8.55;100.00;99621.75;5324997;28;20055;-71
2022/12/30 14:39:15;;;;;;;3.80;1.55;;;;;;;8.51;100.00;99617.94;5324641;28;20028;-71
2022/12/30 14:41:48;;;;;;;2.33;1.73;;;;;;;8.59;100.00;99625.56;5344381;27;20031;-73
2022/12/30 14:44:23;;;;;;;5.53;2.90;;;;;;;8.53;100.00;99624.00;5345901;27;20343;-74
2022/12/30 14:47:01;;;;;;;2.65;1.38;;;;;;;8.61;100.00;99614.19;5346112;27;20023;-75
2022/12/30 14:49:57;;;;;;;2.25;1.77;;;;;;;8.56;100.00;99626.16;5326907;27;20501;-74
2022/12/30 14:52:30;;;;;;;2.78;2.17;;;;;;;8.55;100.00;99607.94;5313104;28;20035;-76
2022/12/30 14:55:13;;;;;;;1.85;1.30;;;;;;;8.58;100.00;99612.84;5345954;27;20038;-73
2022/12/30 14:57:45;;;;;;;2.88;1.40;;;;;;;8.59;100.00;99617.25;5346517;27;20031;-72
2022/12/30 15:00:20;;;;;;;3.30;2.60;;;;;;;8.65;100.00;99618.78;5345849;27;20023;-73
2022/12/30 15:02:57;;;;;;;1.77;1.30;;;;;;;8.65;100.00;99627.09;5345119;27;20411;-74
2022/12/30 15:05:33;;;;;;;2.15;1.70;;;;;;;8.68;100.00;99604.34;5333913;28;20051;-72
2022/12/30 15:08:08;;;;;;;2.75;1.55;;;;;;;8.67;100.00;99618.50;5345532;28;20073;-71
2022/12/30 15:10:50;;;;;;;1.60;1.42;;;;;;;8.74;100.00;99626.38;5346357;28;20027;-72
2022/12/30 15:13:58;;;;;;;1.17;1.08;;;;;;;8.74;100.00;99631.88;5345294;28;20027;-72
2022/12/30 15:16:33;;;;;;;2.33;1.50;;;;;;;8.77;100.00;99628.50;5281322;28;20435;-73
2022/12/30 15:19:26;;;;;;;1.33;1.20;;;;;;;8.80;100.00;99619.63;5324572;28;20383;-72
2022/12/30 15:21:58;;;;;;;1.42;1.30;;;;;;;8.79;100.00;99638.13;5343436;28;20031;-72
2022/12/30 15:24:29;;;;;;;3.15;1.90;;;;;;;8.78;100.00;99643.97;5346072;27;20019;-73
2022/12/30 15:27:01;;;;;;;1.50;1.40;;;;;;;8.80;100.00;99636.22;5348520;27;20101;-73
2022/12/30 15:29:34;;;;;;;1.40;1.30;;;;;;;8.80;100.00;99641.75;5350488;27;20110;-73
2022/12/30 15:32:30;;;;;;;2.22;1.60;;;;;;;8.86;100.00;99651.56;5350088;27;20047;-72
2022/12/30 15:35:10;;;;;;;2.38;1.90;;;;;;;8.88;100.00;99641.00;5349915;27;20153;-73
2022/12/30 15:37:44;;;;;;;1.75;1.60;;;;;;;8.88;100.00;99639.06;5350148;27;20350;-73
2022/12/30 15:40:21;;;;;;;2.67;1.80;;;;;;;8.90;100.00;99644.31;5343852;27;20141;-74
2022/12/30 15:42:56;;;;;;;2.92;1.70;;;;;;;8.89;100.00;99645.41;5344557;27;20034;-74
2022/12/30 15:45:42;;;;;;;1.77;1.30;;;;;;;8.91;100.00;99646.75;5350399;27;20128;-73
2022/12/30 15:48:36;;;;;;;1.95;1.85;;;;;;;8.94;100.00;99648.06;5350150;27;20034;-73
2022/12/30 15:51:19;;;;;;;1.95;1.30;;;;;;;9.00;100.00;99648.78;5331321;27;20035;-72
2022/12/30 15:53:54;;;;;;;2.05;1.50;;;;;;;9.00;100.00;99648.78;5336387;27;20027;-73
2022/12/30 15:56:28;;;;;;;1.67;1.40;;;;;;;9.06;100.00;99662.19;5348355;27;20023;-73
2022/12/30 15:59:04;;;;;;;1.52;1.42;;;;;;;9.06;100.00;99656.66;5330264;27;20286;-71
2022/12/30 16:01:38;;;;;;;1.80;1.42;;;;;;;9.08;100.00;99665.47;5327785;28;20035;-71
2022/12/30 16:04:19;;;;;;;6.93;6.20;;;;;;;9.10;100.00;99671.53;5327912;28;20409;-73
2022/12/30 16:06:55;;;;;;;2.92;2.33;;;;;;;9.14;100.00;99680.84;5328202;28;20054;-74
2022/12/30 16:09:38;;;;;;;2.58;2.28;;;;;;;9.16;100.00;99668.66;5327892;28;20072;-72
2022/12/30 16:12:31;;;;;;;3.00;2.10;;;;;;;9.18;100.00;99663.63;5349322;27;20094;-73
2022/12/30 16:15:08;;;;;;;2.08;1.70;;;;;;;9.28;100.00;99668.94;5349407;27;20514;-73
2022/12/30 16:18:09;;;;;;;2.17;1.70;;;;;;;9.28;100.00;99678.06;5349041;27;20027;-73
2022/12/30 16:20:46;;;;;;;2.80;2.25;;;;;;;9.31;100.00;99679.41;5347375;27;20031;-72
2022/12/30 16:23:22;;;;;;;2.60;2.10;;;;;;;9.33;100.00;99680.72;5348667;27;20102;-73
2022/12/30 16:25:58;;;;;;;1.70;1.60;;;;;;;9.39;100.00;99675.09;5337956;27;20031;-72
2022/12/30 16:28:32;;;;;;;2.13;1.92;;;;;;;9.40;100.00;99691.34;5334734;27;20023;-72
2022/12/30 16:31:12;;;;;;;2.97;2.38;;;;;;;9.43;100.00;99685.19;5348525;27;20105;-73
2022/12/30 16:33:45;;;;;;;2.72;2.17;;;;;;;9.45;100.00;99677.41;5349020;27;20012;-72
2022/12/30 16:36:19;;;;;;;2.45;2.03;;;;;;;9.52;100.00;99680.56;5349162;27;20019;-71
